createdAt,value
2018-11-20T00:02:35.860Z,101759.29
2018-11-20T00:05:23.867Z,101760.08
2018-11-20T00:08:18.559Z,101748.33
2018-11-20T00:11:16.591Z,101747.15
2018-11-20T00:13:59.521Z,101742.77
2018-11-20T00:16:38.477Z,101745.45
2018-11-20T00:19:32.115Z,101738.09
2018-11-20T00:22:29.836Z,101738.73
2018-11-20T00:25:17.484Z,101732.95
2018-11-20T00:28:06.820Z,101731.09
2018-11-20T00:31:07.925Z,101728.88
2018-11-20T00:34:03.984Z,101727.09
2018-11-20T00:37:06.266Z,101722.90
2018-11-20T00:40:04.503Z,101725.52
2018-11-20T00:42:51.933Z,101714.92
2018-11-20T00:45:52.469Z,101707.02
2018-11-20T00:48:39.834Z,101711.16
2018-11-20T00:51:28.714Z,101709.19
2018-11-20T00:54:29.677Z,101713.80
2018-11-20T00:57:24.421Z,101704.73
2018-11-20T01:00:15.067Z,101703.83
2018-11-20T01:03:02.853Z,101707.47
2018-11-20T01:06:02.364Z,101696.17
2018-11-20T01:08:40.404Z,101691.88
2018-11-20T01:11:38.490Z,101693.04
2018-11-20T01:14:33.470Z,101690.97
2018-11-20T01:17:28.570Z,101684.61
2018-11-20T01:20:11.529Z,101688.82
2018-11-20T01:22:58.972Z,101685.67
2018-11-20T01:25:47.872Z,101681.83
2018-11-20T01:28:40.103Z,101679.31
2018-11-20T01:31:29.917Z,101680.78
2018-11-20T01:34:27.950Z,101681.30
2018-11-20T01:37:31.747Z,101680.96
2018-11-20T01:40:27.930Z,101664.30
2018-11-20T01:43:15.812Z,101675.09
2018-11-20T01:46:03.194Z,101672.14
2018-11-20T01:48:47.108Z,101671.50
2018-11-20T01:51:42.232Z,101659.12
2018-11-20T01:54:35.945Z,101659.61
2018-11-20T01:57:13.838Z,101656.43
2018-11-20T02:00:15.483Z,101657.94
2018-11-20T02:02:54.604Z,101654.32
2018-11-20T02:05:31.307Z,101650.64
2018-11-20T02:08:35.319Z,101651.28
2018-11-20T02:11:23.261Z,101642.34
2018-11-20T02:14:19.652Z,101630.52
2018-11-20T02:17:09.710Z,101628.95
2018-11-20T02:19:57.120Z,101629.81
2018-11-20T02:22:44.595Z,101621.69
2018-11-20T02:25:39.531Z,101631.84
2018-11-20T02:28:28.405Z,101623.33
2018-11-20T02:31:26.736Z,101614.16
2018-11-20T02:34:18.535Z,101607.30
2018-11-20T02:37:19.135Z,101605.86
2018-11-20T02:40:10.816Z,101605.17
2018-11-20T02:43:02.682Z,101598.66
2018-11-20T02:45:57.385Z,101605.70
2018-11-20T02:48:48.237Z,101593.55
2018-11-20T02:51:39.735Z,101599.22
2018-11-20T02:54:44.259Z,101598.32
2018-11-20T02:57:33.123Z,101598.96
2018-11-20T03:00:20.525Z,101589.30
2018-11-20T03:03:24.234Z,101585.11
2018-11-20T03:06:15.884Z,101591.98
2018-11-20T03:09:11.088Z,101593.47
2018-11-20T03:12:15.160Z,101582.13
2018-11-20T03:15:02.942Z,101589.02
2018-11-20T03:17:50.457Z,101583.11
2018-11-20T03:20:31.225Z,101570.25
2018-11-20T03:23:13.350Z,101577.94
2018-11-20T03:26:11.593Z,101584.19
2018-11-20T03:29:11.969Z,101566.60
2018-11-20T03:32:10.229Z,101563.48
2018-11-20T03:35:04.704Z,101564.34
2018-11-20T03:37:56.565Z,101566.31
2018-11-20T03:40:43.807Z,101559.66
2018-11-20T03:43:32.689Z,101561.42
2018-11-20T03:46:29.563Z,101558.84
2018-11-20T03:49:30.271Z,101553.77
2018-11-20T03:52:12.395Z,101557.35
2018-11-20T03:54:48.289Z,101556.83
2018-11-20T03:57:35.926Z,101555.27
2018-11-20T04:00:15.671Z,101543.19
2018-11-20T04:03:07.372Z,101545.36
2018-11-20T04:06:08.202Z,101548.85
2018-11-20T04:08:55.614Z,101555.25
2018-11-20T04:11:43.301Z,101546.91
2018-11-20T04:14:24.770Z,101563.97
2018-11-20T04:17:07.056Z,101563.38
2018-11-20T04:19:52.449Z,101568.16
2018-11-20T04:22:50.138Z,101558.48
2018-11-20T04:25:45.262Z,101565.17
2018-11-20T04:28:42.923Z,101556.36
2018-11-20T04:32:13.583Z,101558.55
2018-11-20T04:35:00.158Z,101557.17
2018-11-20T04:37:47.690Z,101556.44
2018-11-20T04:40:35.467Z,101563.97
2018-11-20T04:43:24.662Z,101555.89
2018-11-20T04:46:28.616Z,101555.72
2018-11-20T04:49:11.911Z,101559.48
2018-11-20T04:52:09.868Z,101560.97
2018-11-20T04:54:53.927Z,101555.39
2018-11-20T04:57:42.902Z,101552.22
2018-11-20T05:00:43.980Z,101555.25
2018-11-20T05:03:40.309Z,101556.19
2018-11-20T05:06:30.453Z,101545.25
2018-11-20T05:09:19.351Z,101535.63
2018-11-20T05:11:57.746Z,101530.02
2018-11-20T05:14:37.425Z,101528.83
2018-11-20T05:17:24.713Z,101530.08
2018-11-20T05:20:13.574Z,101531.11
2018-11-20T05:23:05.357Z,101533.84
2018-11-20T05:25:54.279Z,101535.48
2018-11-20T05:29:01.324Z,101532.27
2018-11-20T05:31:50.193Z,101535.44
2018-11-20T05:34:42.538Z,101540.27
2018-11-20T05:37:29.071Z,101532.27
2018-11-20T05:40:27.010Z,101536.33
2018-11-20T05:43:24.541Z,101545.48
2018-11-20T05:46:11.828Z,101536.52
2018-11-20T05:49:03.570Z,101538.27
2018-11-20T05:51:52.019Z,101534.59
2018-11-20T05:54:37.151Z,101539.45
2018-11-20T05:57:24.698Z,101536.72
2018-11-20T06:00:19.439Z,101535.37
2018-11-20T06:03:06.703Z,101548.06
2018-11-20T06:06:02.137Z,101545.23
2018-11-20T06:08:59.777Z,101555.30
2018-11-20T06:11:51.349Z,101551.39
2018-11-20T06:14:58.388Z,101552.17
2018-11-20T06:17:56.511Z,101550.38
2018-11-20T06:20:51.169Z,101557.79
2018-11-20T06:23:55.255Z,101552.94
2018-11-20T06:26:37.654Z,101557.45
2018-11-20T06:29:38.662Z,101551.39
2018-11-20T06:32:27.490Z,101552.42
2018-11-20T06:35:09.549Z,101554.22
2018-11-20T06:38:07.265Z,101559.83
2018-11-20T06:40:58.937Z,101562.94
2018-11-20T06:43:40.430Z,101566.05
2018-11-20T06:46:20.351Z,101564.91
2018-11-20T06:49:07.918Z,101566.41
2018-11-20T06:51:45.593Z,101566.30
2018-11-20T06:54:46.405Z,101568.73
2018-11-20T06:57:27.207Z,101567.72
2018-11-20T07:00:14.495Z,101574.56
2018-11-20T07:03:06.175Z,101571.38
2018-11-20T07:06:07.252Z,101576.66
2018-11-20T07:09:01.605Z,101570.35
2018-11-20T07:11:53.500Z,101568.76
2018-11-20T07:14:43.938Z,101568.12
2018-11-20T07:17:34.517Z,101567.50
2018-11-20T07:20:22.430Z,101570.03
2018-11-20T07:23:50.109Z,101572.00
2018-11-20T07:26:41.005Z,101573.53
2018-11-20T07:29:27.850Z,101577.23
2018-11-20T07:32:14.418Z,101571.49
2018-11-20T07:35:08.500Z,101576.73
2018-11-20T07:38:05.533Z,101573.40
2018-11-20T07:40:42.074Z,101563.22
2018-11-20T07:43:39.733Z,101559.89
2018-11-20T07:46:27.630Z,101564.09
2018-11-20T07:49:23.596Z,101575.70
2018-11-20T07:52:17.213Z,101565.20
2018-11-20T07:55:05.297Z,101568.72
2018-11-20T07:57:58.681Z,101570.14
2018-11-20T08:00:46.971Z,101565.61
2018-11-20T08:03:33.737Z,101569.17
2018-11-20T08:06:20.742Z,101563.07
2018-11-20T08:08:56.830Z,101559.06
2018-11-20T08:11:43.874Z,101551.31
2018-11-20T08:14:21.324Z,101564.63
2018-11-20T08:17:08.325Z,101560.41
2018-11-20T08:20:03.549Z,101550.38
2018-11-20T08:23:00.834Z,101549.91
2018-11-20T08:26:04.229Z,101538.19
2018-11-20T08:29:00.996Z,101538.27
2018-11-20T08:31:49.079Z,101528.42
2018-11-20T08:34:40.659Z,101529.86
2018-11-20T08:37:34.296Z,101509.21
2018-11-20T08:40:28.120Z,101515.14
2018-11-20T08:43:12.633Z,101509.75
2018-11-20T08:46:18.638Z,101501.08
2018-11-20T08:49:05.353Z,101508.13
2018-11-20T08:51:52.162Z,101502.22
2018-11-20T08:54:33.697Z,101499.61
2018-11-20T08:57:24.505Z,101503.05
2018-11-20T09:00:11.257Z,101491.19
2018-11-20T09:03:00.765Z,101494.13
2018-11-20T09:05:47.888Z,101489.98
2018-11-20T09:08:35.955Z,101486.88
2018-11-20T09:11:22.772Z,101481.91
2018-11-20T09:14:09.410Z,101480.21
2018-11-20T09:16:56.288Z,101490.70
2018-11-20T09:19:43.303Z,101475.21
2018-11-20T09:22:34.444Z,101473.45
2018-11-20T09:25:17.757Z,101463.55
2018-11-20T09:28:08.934Z,101458.80
2018-11-20T09:31:08.879Z,101458.17
2018-11-20T09:33:56.952Z,101457.50
2018-11-20T09:36:43.611Z,101459.09
2018-11-20T09:39:30.317Z,101448.34
2018-11-20T09:42:22.001Z,101455.71
2018-11-20T09:45:41.681Z,101451.55
2018-11-20T09:48:39.054Z,101454.33
2018-11-20T09:51:38.352Z,101451.23
2018-11-20T09:54:31.677Z,101443.28
2018-11-20T09:57:22.744Z,101434.61
2018-11-20T10:00:09.432Z,101441.48
2018-11-20T10:02:57.501Z,101443.75
2018-11-20T10:05:36.374Z,101451.83
2018-11-20T10:08:24.544Z,101446.86
2018-11-20T10:11:11.346Z,101442.70
2018-11-20T10:14:08.799Z,101439.13
2018-11-20T10:16:56.827Z,101437.97
2018-11-20T10:19:47.665Z,101432.66
2018-11-20T10:22:34.410Z,101435.20
2018-11-20T10:25:12.912Z,101432.41
2018-11-20T10:27:59.821Z,101430.84
2018-11-20T10:30:46.819Z,101426.47
2018-11-20T10:33:50.165Z,101422.97
2018-11-20T10:36:40.839Z,101420.59
2018-11-20T10:39:35.622Z,101405.34
2018-11-20T10:42:23.675Z,101401.95
2018-11-20T10:45:11.739Z,101405.76
2018-11-20T10:48:02.495Z,101402.36
2018-11-20T10:50:49.554Z,101409.56
2018-11-20T10:53:36.564Z,101395.20
2018-11-20T10:56:16.827Z,101389.87
2018-11-20T10:59:03.970Z,101383.37
2018-11-20T11:01:50.403Z,101384.52
2018-11-20T11:04:37.411Z,101381.77
2018-11-20T11:07:24.520Z,101370.63
2018-11-20T11:09:56.958Z,101377.46
2018-11-20T11:12:53.739Z,101366.23
2018-11-20T11:15:44.557Z,101362.28
2018-11-20T11:18:32.663Z,101362.94
2018-11-20T11:21:15.751Z,101356.61
2018-11-20T11:24:13.139Z,101356.83
2018-11-20T11:27:03.998Z,101359.68
2018-11-20T11:29:50.667Z,101340.00
2018-11-20T11:32:37.436Z,101354.94
2018-11-20T11:35:24.612Z,101341.89
2018-11-20T11:38:21.541Z,101350.33
2018-11-20T11:41:00.255Z,101346.29
2018-11-20T11:43:53.999Z,101350.88
2018-11-20T11:46:35.626Z,101342.16
2018-11-20T11:49:35.502Z,101341.05
2018-11-20T11:52:25.365Z,101337.66
2018-11-20T11:55:09.324Z,101345.34
2018-11-20T11:58:04.916Z,101345.14
2018-11-20T12:00:58.723Z,101326.91
2018-11-20T12:03:52.328Z,101331.91
2018-11-20T12:06:49.663Z,101332.91
2018-11-20T12:09:36.598Z,101325.48
2018-11-20T12:12:23.345Z,101323.14
2018-11-20T12:15:26.819Z,101331.81
2018-11-20T12:18:14.867Z,101321.31
2018-11-20T12:21:01.327Z,101325.81
2018-11-20T12:23:45.795Z,101319.84
2018-11-20T12:26:36.919Z,101322.36
2018-11-20T12:29:34.692Z,101306.39
2018-11-20T12:32:24.521Z,101314.77
2018-11-20T12:35:09.541Z,101306.25
2018-11-20T12:37:59.332Z,101310.92
2018-11-20T12:41:00.850Z,101307.52
2018-11-20T12:43:51.873Z,101310.26
2018-11-20T12:46:30.170Z,101305.56
2018-11-20T12:49:18.744Z,101302.02
2018-11-20T12:52:14.033Z,101283.36
2018-11-20T12:55:03.066Z,101288.56
2018-11-20T12:57:54.299Z,101292.80
2018-11-20T13:00:42.024Z,101287.43
2018-11-20T13:03:45.502Z,101273.23
2018-11-20T13:06:39.560Z,101257.70
2018-11-20T13:09:27.202Z,101259.08
2018-11-20T13:12:13.903Z,101256.64
2018-11-20T13:15:05.030Z,101249.77
2018-11-20T13:17:51.764Z,101260.90
2018-11-20T13:20:38.704Z,101249.95
2018-11-20T13:23:42.068Z,101253.98
2018-11-20T13:26:21.012Z,101246.31
2018-11-20T13:29:27.033Z,101246.41
2018-11-20T13:32:13.526Z,101249.42
2018-11-20T13:35:07.860Z,101245.83
2018-11-20T13:37:55.934Z,101224.39
2018-11-20T13:41:19.481Z,101235.81
2018-11-20T13:44:16.658Z,101229.17
2018-11-20T13:47:07.520Z,101233.59
2018-11-20T13:49:54.227Z,101227.31
2018-11-20T13:52:45.324Z,101224.56
2018-11-20T13:55:27.294Z,101211.58
2018-11-20T13:58:29.246Z,101216.02
2018-11-20T14:01:12.561Z,101216.27
2018-11-20T14:03:54.963Z,101217.47
2018-11-20T14:06:41.643Z,101217.03
2018-11-20T14:09:28.330Z,101212.20
2018-11-20T14:12:22.558Z,101199.84
2018-11-20T14:15:09.870Z,101191.25
2018-11-20T14:18:13.290Z,101190.76
2018-11-20T14:21:00.169Z,101179.42
2018-11-20T14:23:47.237Z,101189.74
2018-11-20T14:26:40.001Z,101185.84
2018-11-20T14:29:19.106Z,101189.96
2018-11-20T14:32:00.276Z,101180.53
2018-11-20T14:35:00.459Z,101179.37
2018-11-20T14:38:00.129Z,101180.48
2018-11-20T14:40:46.951Z,101182.44
2018-11-20T14:43:46.548Z,101175.34
2018-11-20T14:46:46.707Z,101182.13
2018-11-20T14:49:33.408Z,101180.27
2018-11-20T14:52:20.280Z,101182.17
2018-11-20T14:55:11.110Z,101179.77
2018-11-20T14:58:17.345Z,101179.15
2018-11-20T15:01:04.680Z,101176.36
2018-11-20T15:03:57.940Z,101177.88
2018-11-20T15:06:44.897Z,101177.51
2018-11-20T15:09:35.939Z,101172.45
2018-11-20T15:12:22.593Z,101176.48
2018-11-20T15:15:16.400Z,101177.20
2018-11-20T15:18:22.849Z,101179.33
2018-11-20T15:21:09.673Z,101179.81
2018-11-20T15:24:09.558Z,101181.77
2018-11-20T15:27:06.699Z,101184.64
2018-11-20T15:29:53.890Z,101183.53
2018-11-20T15:32:40.464Z,101182.30
2018-11-20T15:35:34.547Z,101194.61
2018-11-20T15:38:21.467Z,101188.23
2018-11-20T15:41:14.214Z,101197.31
2018-11-20T15:44:05.022Z,101192.17
2018-11-20T15:46:53.048Z,101192.87
2018-11-20T15:49:35.490Z,101195.19
2018-11-20T15:52:12.745Z,101207.23
2018-11-20T15:55:09.562Z,101215.56
2018-11-20T15:57:56.484Z,101217.87
2018-11-20T16:00:44.549Z,101222.43
2018-11-20T16:03:31.296Z,101212.99
2018-11-20T16:06:22.269Z,101209.19
2018-11-20T16:09:28.695Z,101193.06
2018-11-20T16:12:25.731Z,101192.05
2018-11-20T16:15:26.031Z,101208.08
2018-11-20T16:18:23.053Z,101200.98
2018-11-20T16:21:14.333Z,101213.08
2018-11-20T16:24:09.495Z,101224.68
2018-11-20T16:26:56.318Z,101228.35
2018-11-20T16:29:43.153Z,101217.91
2018-11-20T16:32:29.750Z,101219.77
2018-11-20T16:35:06.572Z,101229.09
2018-11-20T16:38:03.780Z,101242.45
2018-11-20T16:40:59.999Z,101232.27
2018-11-20T16:43:46.841Z,101230.22
2018-11-20T16:46:40.290Z,101225.48
2018-11-20T16:49:26.806Z,101229.34
2018-11-20T16:52:14.857Z,101237.20
2018-11-20T16:55:17.934Z,101240.52
2018-11-20T16:58:20.959Z,101244.02
2018-11-20T17:01:11.802Z,101243.46
2018-11-20T17:04:02.626Z,101258.05
2018-11-20T17:06:44.502Z,101250.65
2018-11-20T17:09:38.404Z,101256.12
2018-11-20T17:12:16.919Z,101259.73
2018-11-20T17:15:03.255Z,101268.98
2018-11-20T17:17:53.026Z,101263.39
2018-11-20T17:20:39.691Z,101269.81
2018-11-20T17:23:20.819Z,101271.95
2018-11-20T17:26:14.667Z,101268.30
2018-11-20T17:29:09.125Z,101270.16
2018-11-20T17:31:55.594Z,101259.45
2018-11-20T17:34:42.362Z,101261.52
2018-11-20T17:37:30.461Z,101263.19
2018-11-20T17:40:20.918Z,101259.52
2018-11-20T17:43:05.163Z,101271.46
2018-11-20T17:45:52.033Z,101283.85
2018-11-20T17:48:48.982Z,101290.23
2018-11-20T17:51:40.252Z,101273.75
2018-11-20T17:54:27.038Z,101282.59
2018-11-20T17:57:14.140Z,101285.32
2018-11-20T18:00:01.007Z,101278.85
2018-11-20T18:02:47.879Z,101283.78
2018-11-20T18:05:35.963Z,101277.00
2018-11-20T18:08:17.707Z,101272.88
2018-11-20T18:11:01.893Z,101271.02
2018-11-20T18:13:49.996Z,101268.37
2018-11-20T18:16:26.724Z,101274.76
2018-11-20T18:19:17.470Z,101275.73
2018-11-20T18:22:08.336Z,101260.02
2018-11-20T18:24:56.393Z,101261.27
2018-11-20T18:27:53.482Z,101269.48
2018-11-20T18:30:44.408Z,101270.36
2018-11-20T18:33:38.224Z,101260.72
2018-11-20T18:36:41.351Z,101258.44
2018-11-20T18:39:32.492Z,101263.09
2018-11-20T18:42:29.637Z,101259.39
2018-11-20T18:45:32.935Z,101263.85
2018-11-20T18:48:20.037Z,101267.56
2018-11-20T18:51:06.669Z,101277.84
2018-11-20T18:53:55.989Z,101275.47
2018-11-20T18:56:50.072Z,101265.75
2018-11-20T18:59:38.580Z,101278.67
2018-11-20T19:02:23.214Z,101268.53
2018-11-20T19:05:04.249Z,101262.53
2018-11-20T19:08:01.332Z,101271.13
2018-11-20T19:10:52.448Z,101268.27
2018-11-20T19:13:52.840Z,101265.02
2018-11-20T19:16:39.549Z,101268.44
2018-11-20T19:19:36.781Z,101261.55
2018-11-20T19:22:26.872Z,101262.11
2018-11-20T19:25:11.578Z,101262.08
2018-11-20T19:27:58.402Z,101260.16
2018-11-20T19:30:45.434Z,101262.64
2018-11-20T19:33:25.562Z,101267.49
2018-11-20T19:36:12.533Z,101263.09
2018-11-20T19:39:03.574Z,101265.15
2018-11-20T19:41:51.643Z,101267.91
2018-11-20T19:44:42.733Z,101278.59
2018-11-20T19:47:22.602Z,101278.95
2018-11-20T19:50:02.176Z,101288.16
2018-11-20T19:53:02.991Z,101285.78
2018-11-20T19:55:50.872Z,101287.77
2018-11-20T19:58:42.142Z,101285.28
2018-11-20T20:01:42.483Z,101289.38
2018-11-20T20:04:39.428Z,101287.94
2018-11-20T20:07:36.822Z,101278.95
2018-11-20T20:10:21.513Z,101286.05
2018-11-20T20:13:23.811Z,101290.59
2018-11-20T20:16:19.088Z,101284.45
2018-11-20T20:19:25.317Z,101292.23
2018-11-20T20:22:11.962Z,101288.92
2018-11-20T20:24:59.996Z,101283.70
2018-11-20T20:28:06.583Z,101281.93
2018-11-20T20:30:53.007Z,101288.44
2018-11-20T20:33:41.151Z,101292.73
2018-11-20T20:36:25.435Z,101293.84
2018-11-20T20:39:12.325Z,101306.59
2018-11-20T20:41:55.059Z,101300.70
2018-11-20T20:44:43.104Z,101302.97
2018-11-20T20:47:30.075Z,101304.69
2018-11-20T20:50:26.979Z,101306.02
2018-11-20T20:53:27.479Z,101306.33
2018-11-20T20:56:14.648Z,101311.61
2018-11-20T20:59:06.300Z,101302.93
2018-11-20T21:01:58.003Z,101308.27
2018-11-20T21:04:34.045Z,101314.02
2018-11-20T21:07:31.290Z,101316.14
2018-11-20T21:10:17.929Z,101319.84
2018-11-20T21:12:57.971Z,101331.36
2018-11-20T21:15:39.943Z,101334.25
2018-11-20T21:18:36.616Z,101327.18
2018-11-20T21:21:23.487Z,101331.70
2018-11-20T21:24:10.179Z,101335.55
2018-11-20T21:26:57.166Z,101326.36
2018-11-20T21:29:44.267Z,101326.39
2018-11-20T21:32:32.880Z,101332.30
2018-11-20T21:35:27.916Z,101330.17
2018-11-20T21:38:16.258Z,101325.91
2018-11-20T21:41:03.767Z,101331.24
2018-11-20T21:43:50.451Z,101335.02
2018-11-20T21:46:35.411Z,101335.03
2018-11-20T21:49:22.421Z,101343.32
2018-11-20T21:52:09.526Z,101347.59
2018-11-20T21:54:49.169Z,101353.56
2018-11-20T21:57:43.311Z,101352.89
2018-11-20T22:01:08.642Z,101359.71
2018-11-20T22:04:08.776Z,101361.36
2018-11-20T22:06:58.070Z,101359.55
2018-11-20T22:09:51.747Z,101365.48
2018-11-20T22:12:45.907Z,101365.37
2018-11-20T22:15:32.877Z,101362.42
2018-11-20T22:18:30.115Z,101363.41
2018-11-20T22:21:25.135Z,101366.32
2018-11-20T22:24:19.063Z,101359.69
2018-11-20T22:27:05.761Z,101378.94
2018-11-20T22:29:54.493Z,101382.63
2018-11-20T22:32:53.194Z,101381.83
2018-11-20T22:35:46.056Z,101383.77
2018-11-20T22:38:35.721Z,101391.70
2018-11-20T22:41:33.149Z,101397.51
2018-11-20T22:44:19.928Z,101401.49
2018-11-20T22:47:07.960Z,101400.75
2018-11-20T22:49:54.885Z,101404.41
2018-11-20T22:52:42.946Z,101406.31
2018-11-20T22:55:36.687Z,101408.89
2018-11-20T22:58:30.540Z,101408.25
2018-11-20T23:01:17.275Z,101418.09
2018-11-20T23:04:08.371Z,101416.11
2018-11-20T23:07:02.571Z,101415.04
2018-11-20T23:09:31.489Z,101421.80
2018-11-20T23:12:00.452Z,101425.15
2018-11-20T23:14:29.772Z,101416.69
2018-11-20T23:16:58.717Z,101420.06
2018-11-20T23:19:27.689Z,101425.20
2018-11-20T23:21:56.626Z,101424.05
2018-11-20T23:24:25.553Z,101427.55
2018-11-20T23:26:57.611Z,101416.60
2018-11-20T23:29:26.895Z,101423.56
2018-11-20T23:31:55.742Z,101419.11
2018-11-20T23:34:24.684Z,101427.58
2018-11-20T23:36:53.596Z,101416.80
2018-11-20T23:39:22.522Z,101422.94
2018-11-20T23:41:51.476Z,101422.75
2018-11-20T23:44:20.411Z,101422.09
2018-11-20T23:46:49.342Z,101410.10
2018-11-20T23:49:18.327Z,101416.88
2018-11-20T23:51:47.269Z,101420.62
2018-11-20T23:54:16.193Z,101422.86
2018-11-20T23:56:45.126Z,101417.26
2018-11-20T23:59:14.112Z,101414.95
